createdAt,value
2022-09-23T00:00:32.618Z,6.80
2022-09-23T00:01:55.876Z,9.40
2022-09-23T00:03:00.100Z,11.10
2022-09-23T00:04:03.439Z,8.00
2022-09-23T00:05:07.432Z,8.90
2022-09-23T00:06:16.018Z,9.50
2022-09-23T00:07:21.977Z,10.50
2022-09-23T00:08:25.819Z,10.80
2022-09-23T00:09:29.015Z,8.30
2022-09-23T00:10:33.122Z,10.10
2022-09-23T00:11:36.367Z,8.50
2022-09-23T00:12:39.512Z,10.50
2022-09-23T00:13:45.099Z,8.10
2022-09-23T00:14:48.366Z,8.80
2022-09-23T00:15:52.394Z,7.70
2022-09-23T00:16:55.773Z,8.10
2022-09-23T00:17:59.003Z,7.90
2022-09-23T00:19:04.164Z,9.10
2022-09-23T00:20:09.460Z,7.80
2022-09-23T00:21:14.642Z,11.50
2022-09-23T00:22:18.619Z,9.20
2022-09-23T00:23:21.854Z,6.70
2022-09-23T00:24:25.050Z,7.70
2022-09-23T00:25:29.874Z,11.60
2022-09-23T00:26:33.112Z,11.70
2022-09-23T00:27:37.778Z,7.20
2022-09-23T00:28:41.790Z,13.10
2022-09-23T00:29:45.004Z,11.40
2022-09-23T00:30:54.205Z,22.10
2022-09-23T00:31:58.018Z,6.80
2022-09-23T00:33:01.550Z,9.70
2022-09-23T00:34:04.903Z,5.40
2022-09-23T00:35:09.168Z,6.00
2022-09-23T00:36:17.985Z,5.30
2022-09-23T00:37:21.577Z,6.90
2022-09-23T00:38:24.908Z,6.00
2022-09-23T00:39:28.095Z,5.90
2022-09-23T00:40:33.919Z,10.40
2022-09-23T00:41:37.438Z,6.80
2022-09-23T00:42:49.231Z,5.90
2022-09-23T00:43:58.693Z,6.00
2022-09-23T00:45:02.349Z,5.80
2022-09-23T00:46:08.468Z,6.60
2022-09-23T00:47:19.619Z,5.60
2022-09-23T00:48:22.905Z,7.90
2022-09-23T00:49:29.906Z,8.10
2022-09-23T00:50:38.258Z,4.90
2022-09-23T00:51:54.297Z,5.40
2022-09-23T00:53:01.531Z,8.40
2022-09-23T00:54:06.778Z,6.20
2022-09-23T00:55:18.282Z,4.50
2022-09-23T00:56:24.540Z,6.00
2022-09-23T00:57:30.808Z,5.00
2022-09-23T00:58:38.702Z,5.60
2022-09-23T00:59:42.461Z,5.30
2022-09-23T01:00:47.025Z,8.80
2022-09-23T01:01:54.983Z,7.00
2022-09-23T01:02:58.302Z,7.20
2022-09-23T01:04:01.667Z,6.40
2022-09-23T01:05:06.547Z,7.60
2022-09-23T01:06:10.796Z,5.80
2022-09-23T01:07:13.922Z,3.90
2022-09-23T01:08:17.773Z,3.90
2022-09-23T01:09:23.042Z,5.20
2022-09-23T01:10:32.092Z,3.60
2022-09-23T01:11:44.408Z,11.60
2022-09-23T01:12:58.702Z,10.00
2022-09-23T01:14:11.269Z,3.60
2022-09-23T01:15:33.672Z,3.40
2022-09-23T01:16:57.313Z,3.40
2022-09-23T01:18:21.322Z,4.30
2022-09-23T01:19:36.813Z,3.80
2022-09-23T01:20:40.057Z,4.10
2022-09-23T01:21:58.280Z,4.70
2022-09-23T01:23:22.353Z,4.40
2022-09-23T01:24:34.674Z,4.20
2022-09-23T01:26:05.405Z,4.20
2022-09-23T01:27:22.314Z,4.20
2022-09-23T01:28:55.211Z,4.20
2022-09-23T01:30:37.187Z,13.10
2022-09-23T01:31:55.709Z,6.00
2022-09-23T01:32:58.977Z,4.30
2022-09-23T01:34:13.599Z,5.80
2022-09-23T01:35:32.079Z,4.60
2022-09-23T01:36:51.897Z,4.40
2022-09-23T01:38:01.497Z,4.40
2022-09-23T01:39:18.997Z,5.90
2022-09-23T01:40:31.580Z,4.50
2022-09-23T01:41:44.067Z,4.80
2022-09-23T01:43:04.902Z,4.50
2022-09-23T01:44:16.122Z,4.30
2022-09-23T01:45:31.238Z,6.90
2022-09-23T01:46:55.317Z,4.10
2022-09-23T01:48:10.534Z,6.10
2022-09-23T01:49:57.200Z,8.40
2022-09-23T01:51:09.277Z,4.10
2022-09-23T01:52:25.945Z,6.10
2022-09-23T01:53:49.138Z,5.20
2022-09-23T01:55:35.051Z,4.10
2022-09-23T01:56:49.448Z,4.90
2022-09-23T01:58:07.682Z,5.40
2022-09-23T01:59:21.825Z,4.00
2022-09-23T02:00:27.833Z,4.10
2022-09-23T02:01:43.440Z,4.70
2022-09-23T02:02:53.581Z,3.90
2022-09-23T02:04:09.023Z,4.50
2022-09-23T02:05:42.259Z,4.30
2022-09-23T02:06:54.591Z,5.60
2022-09-23T02:08:02.199Z,4.50
2022-09-23T02:09:12.185Z,4.10
2022-09-23T02:10:42.295Z,4.70
2022-09-23T02:11:48.404Z,4.10
2022-09-23T02:13:00.312Z,5.20
2022-09-23T02:14:26.147Z,4.90
2022-09-23T02:15:35.414Z,4.30
2022-09-23T02:16:47.638Z,4.20
2022-09-23T02:18:05.182Z,4.40
2022-09-23T02:19:36.688Z,4.70
2022-09-23T02:21:55.614Z,3.90
2022-09-23T02:23:07.787Z,5.60
2022-09-23T02:24:21.266Z,5.00
2022-09-23T02:25:35.688Z,6.80
2022-09-23T02:26:49.294Z,4.20
2022-09-23T02:28:02.343Z,4.80
2022-09-23T02:29:09.128Z,5.70
2022-09-23T02:30:20.427Z,4.60
2022-09-23T02:32:47.219Z,4.20
2022-09-23T02:33:59.450Z,6.00
2022-09-23T02:35:37.372Z,6.30
2022-09-23T02:36:46.976Z,4.90
2022-09-23T02:38:11.287Z,4.30
2022-09-23T02:39:15.272Z,4.10
2022-09-23T02:40:32.339Z,4.90
2022-09-23T02:41:50.294Z,4.20
2022-09-23T02:43:09.283Z,4.40
2022-09-23T02:44:16.168Z,5.10
2022-09-23T02:45:19.667Z,4.70
2022-09-23T02:46:23.665Z,4.20
2022-09-23T02:47:32.487Z,4.90
2022-09-23T02:48:48.893Z,4.00
2022-09-23T02:49:53.404Z,7.60
2022-09-23T02:50:58.498Z,4.60
2022-09-23T02:52:04.973Z,4.10
2022-09-23T02:53:08.866Z,4.30
2022-09-23T02:54:16.974Z,4.20
2022-09-23T02:55:23.680Z,4.40
2022-09-23T02:56:26.873Z,5.60
2022-09-23T02:57:30.659Z,5.60
2022-09-23T02:58:34.536Z,4.30
2022-09-23T02:59:38.647Z,4.60
2022-09-23T03:00:52.039Z,4.40
2022-09-23T03:02:07.192Z,4.20
2022-09-23T03:03:19.529Z,4.90
2022-09-23T03:04:42.726Z,4.40
2022-09-23T03:05:57.814Z,4.20
2022-09-23T03:07:19.087Z,4.00
2022-09-23T03:08:26.031Z,5.80
2022-09-23T03:09:50.666Z,4.20
2022-09-23T03:10:53.824Z,4.80
2022-09-23T03:12:25.444Z,4.70
2022-09-23T03:13:59.592Z,5.20
2022-09-23T03:15:21.563Z,4.00
2022-09-23T03:16:36.546Z,4.20
2022-09-23T03:17:41.678Z,3.80
2022-09-23T03:19:20.440Z,4.00
2022-09-23T03:20:35.712Z,3.40
2022-09-23T03:21:49.317Z,3.60
2022-09-23T03:22:57.330Z,4.70
2022-09-23T03:24:05.983Z,5.30
2022-09-23T03:25:18.274Z,8.00
2022-09-23T03:26:30.916Z,7.80
2022-09-23T03:27:37.305Z,6.60
2022-09-23T03:28:44.618Z,6.10
2022-09-23T03:29:50.399Z,5.20
2022-09-23T03:30:56.227Z,5.10
2022-09-23T03:32:03.137Z,6.60
2022-09-23T03:33:12.271Z,5.10
2022-09-23T03:34:28.660Z,6.50
2022-09-23T03:35:55.719Z,5.70
2022-09-23T03:37:06.724Z,6.80
2022-09-23T03:38:17.535Z,7.00
2022-09-23T03:39:30.763Z,6.00
2022-09-23T03:40:42.097Z,4.70
2022-09-23T03:41:51.102Z,5.10
2022-09-23T03:42:57.665Z,10.10
2022-09-23T03:44:02.528Z,6.70
2022-09-23T03:45:10.000Z,4.70
2022-09-23T03:46:14.549Z,9.10
2022-09-23T03:47:18.812Z,5.00
2022-09-23T03:48:22.343Z,5.20
2022-09-23T03:49:33.498Z,7.90
2022-09-23T03:51:44.499Z,4.00
2022-09-23T03:52:49.801Z,4.50
2022-09-23T03:53:52.979Z,4.40
2022-09-23T03:54:56.197Z,4.70
2022-09-23T03:56:00.956Z,5.80
2022-09-23T03:57:04.279Z,4.80
2022-09-23T03:58:08.329Z,6.90
2022-09-23T03:59:11.435Z,4.80
2022-09-23T04:00:16.200Z,4.70
2022-09-23T04:01:19.526Z,5.10
2022-09-23T04:02:25.331Z,5.60
2022-09-23T04:03:29.463Z,7.80
2022-09-23T04:04:34.354Z,4.80
2022-09-23T04:05:37.683Z,5.00
2022-09-23T04:06:41.325Z,6.00
2022-09-23T04:07:44.723Z,6.80
2022-09-23T04:08:55.726Z,4.60
2022-09-23T04:09:59.195Z,7.00
2022-09-23T04:11:03.841Z,6.00
2022-09-23T04:12:10.057Z,4.10
2022-09-23T04:13:13.289Z,7.60
2022-09-23T04:14:17.757Z,7.00
2022-09-23T04:15:21.908Z,6.70
2022-09-23T04:16:26.241Z,3.60
2022-09-23T04:17:29.874Z,10.30
2022-09-23T04:18:33.847Z,4.60
2022-09-23T04:19:37.806Z,4.90
2022-09-23T04:20:41.098Z,7.60
2022-09-23T04:21:45.087Z,4.20
2022-09-23T04:22:48.435Z,3.60
2022-09-23T04:23:51.668Z,3.80
2022-09-23T04:24:54.957Z,2.90
2022-09-23T04:25:58.121Z,4.90
2022-09-23T04:27:02.126Z,3.70
2022-09-23T04:28:07.401Z,3.40
2022-09-23T04:29:13.344Z,2.70
2022-09-23T04:30:16.976Z,3.00
2022-09-23T04:31:23.960Z,3.30
2022-09-23T04:32:27.181Z,3.00
2022-09-23T04:33:32.633Z,3.30
2022-09-23T04:34:36.074Z,3.20
2022-09-23T04:35:40.621Z,4.80
2022-09-23T04:36:50.809Z,3.10
2022-09-23T04:37:53.999Z,3.70
2022-09-23T04:38:57.629Z,3.60
2022-09-23T04:40:01.228Z,6.10
2022-09-23T04:41:04.652Z,3.70
2022-09-23T04:42:07.883Z,2.90
2022-09-23T04:43:13.539Z,3.60
2022-09-23T04:44:17.333Z,4.10
2022-09-23T04:45:20.729Z,3.70
2022-09-23T04:46:25.221Z,3.80
2022-09-23T04:47:28.603Z,4.40
2022-09-23T04:48:36.967Z,5.30
2022-09-23T04:49:40.911Z,3.30
2022-09-23T04:50:44.174Z,4.00
2022-09-23T04:51:47.969Z,3.50
2022-09-23T04:52:51.789Z,3.90
2022-09-23T04:53:57.595Z,3.50
2022-09-23T04:55:00.786Z,3.50
2022-09-23T04:56:06.604Z,5.00
2022-09-23T04:57:11.143Z,3.00
2022-09-23T04:58:15.595Z,4.30
2022-09-23T04:59:19.089Z,3.90
2022-09-23T05:00:24.551Z,4.90
2022-09-23T05:01:30.851Z,3.60
2022-09-23T05:02:39.768Z,4.40
2022-09-23T05:03:44.694Z,5.30
2022-09-23T05:04:48.609Z,8.70
2022-09-23T05:05:52.000Z,8.50
2022-09-23T05:06:58.394Z,4.60
2022-09-23T05:08:04.014Z,7.90
2022-09-23T05:09:08.539Z,5.60
2022-09-23T05:10:12.185Z,4.20
2022-09-23T05:11:15.513Z,3.80
2022-09-23T05:12:18.871Z,6.60
2022-09-23T05:13:24.571Z,4.20
2022-09-23T05:14:28.258Z,6.10
2022-09-23T05:15:31.690Z,4.80
2022-09-23T05:16:36.243Z,4.20
2022-09-23T05:17:39.383Z,6.10
2022-09-23T05:18:44.153Z,5.40
2022-09-23T05:19:47.291Z,4.00
2022-09-23T05:20:56.497Z,4.10
2022-09-23T05:21:59.713Z,4.20
2022-09-23T05:23:03.005Z,3.90
2022-09-23T05:24:06.342Z,4.50
2022-09-23T05:25:09.761Z,3.50
2022-09-23T05:26:14.019Z,4.60
2022-09-23T05:27:17.297Z,4.20
2022-09-23T05:28:21.499Z,3.70
2022-09-23T05:29:24.908Z,4.60
2022-09-23T05:30:28.056Z,4.00
2022-09-23T05:31:32.009Z,3.20
2022-09-23T05:32:36.127Z,3.50
2022-09-23T05:33:39.808Z,3.80
2022-09-23T05:34:43.281Z,4.40
2022-09-23T05:35:47.723Z,3.80
2022-09-23T05:36:51.023Z,3.50
2022-09-23T05:37:54.268Z,3.70
2022-09-23T05:38:57.619Z,3.90
2022-09-23T05:40:01.013Z,4.30
2022-09-23T05:41:07.632Z,6.80
2022-09-23T05:42:13.898Z,14.60
2022-09-23T05:43:17.276Z,7.80
2022-09-23T05:44:20.428Z,3.70
2022-09-23T05:45:26.841Z,4.10
2022-09-23T05:46:32.221Z,6.30
2022-09-23T05:47:35.785Z,5.80
2022-09-23T05:48:40.572Z,5.50
2022-09-23T05:49:59.251Z,4.80
2022-09-23T05:51:04.247Z,4.50
2022-09-23T05:52:07.507Z,5.50
2022-09-23T05:53:10.722Z,5.10
2022-09-23T05:54:14.179Z,3.80
2022-09-23T05:55:17.553Z,6.40
2022-09-23T05:56:23.723Z,3.70
2022-09-23T05:57:26.921Z,6.70
2022-09-23T05:58:30.773Z,3.90
2022-09-23T05:59:34.119Z,5.50
2022-09-23T06:00:40.120Z,3.50
2022-09-23T06:01:44.302Z,3.70
2022-09-23T06:02:49.101Z,2.80
2022-09-23T06:03:53.848Z,2.80
2022-09-23T06:04:57.133Z,3.20
2022-09-23T06:06:00.324Z,3.00
2022-09-23T06:07:03.875Z,2.90
2022-09-23T06:08:08.565Z,3.40
2022-09-23T06:09:14.217Z,3.20
2022-09-23T06:10:17.502Z,2.90
2022-09-23T06:11:21.690Z,3.50
2022-09-23T06:12:25.816Z,3.80
2022-09-23T06:13:29.209Z,3.10
2022-09-23T06:14:32.385Z,3.80
2022-09-23T06:15:39.051Z,4.20
2022-09-23T06:16:43.506Z,6.00
2022-09-23T06:17:50.469Z,5.00
2022-09-23T06:18:59.663Z,5.50
2022-09-23T06:21:10.379Z,3.10
2022-09-23T06:22:17.038Z,3.00
2022-09-23T06:23:24.594Z,3.20
2022-09-23T06:24:31.664Z,3.40
2022-09-23T06:25:36.689Z,2.70
2022-09-23T06:26:40.698Z,3.30
2022-09-23T06:27:44.948Z,3.00
2022-09-23T06:28:48.474Z,3.30
2022-09-23T06:29:52.655Z,4.10
2022-09-23T06:31:15.861Z,3.30
2022-09-23T06:32:20.250Z,3.40
2022-09-23T06:33:35.152Z,4.50
2022-09-23T06:34:50.832Z,3.30
2022-09-23T06:36:00.251Z,3.90
2022-09-23T06:37:15.921Z,3.80
2022-09-23T06:38:22.738Z,5.10
2022-09-23T06:39:26.003Z,4.00
2022-09-23T06:40:29.378Z,5.00
2022-09-23T06:41:33.683Z,4.00
2022-09-23T06:42:44.240Z,5.60
2022-09-23T06:43:48.266Z,5.30
2022-09-23T06:44:51.697Z,4.90
2022-09-23T06:46:04.220Z,5.70
2022-09-23T06:47:07.640Z,4.50
2022-09-23T06:48:11.693Z,4.00
2022-09-23T06:49:17.156Z,3.60
2022-09-23T06:50:20.485Z,4.10
2022-09-23T06:51:24.947Z,3.60
2022-09-23T06:52:28.774Z,4.70
2022-09-23T06:53:33.352Z,4.00
2022-09-23T06:54:38.209Z,4.90
2022-09-23T06:55:41.556Z,5.10
2022-09-23T06:56:47.759Z,3.90
2022-09-23T06:57:51.285Z,3.40
2022-09-23T06:58:54.936Z,4.00
2022-09-23T07:00:02.064Z,3.80
2022-09-23T07:01:11.515Z,3.80
2022-09-23T07:02:14.798Z,3.10
2022-09-23T07:03:18.062Z,4.70
2022-09-23T07:04:22.188Z,5.20
2022-09-23T07:05:27.360Z,3.80
2022-09-23T07:06:30.620Z,4.50
2022-09-23T07:07:34.329Z,4.20
2022-09-23T07:08:37.894Z,3.40
2022-09-23T07:09:41.066Z,3.10
2022-09-23T07:10:51.491Z,3.40
2022-09-23T07:11:54.573Z,3.30
2022-09-23T07:13:02.275Z,3.20
2022-09-23T07:14:08.699Z,3.00
2022-09-23T07:15:12.097Z,4.40
2022-09-23T07:16:15.385Z,3.30
2022-09-23T07:17:18.613Z,2.90
2022-09-23T07:18:25.992Z,2.90
2022-09-23T07:19:29.718Z,3.00
2022-09-23T07:20:33.161Z,3.00
2022-09-23T07:21:37.033Z,2.60
2022-09-23T07:22:40.185Z,3.50
2022-09-23T07:23:46.212Z,2.70
2022-09-23T07:24:49.469Z,2.50
2022-09-23T07:25:52.866Z,2.80
2022-09-23T07:26:56.107Z,2.60
2022-09-23T07:27:59.310Z,4.00
2022-09-23T07:29:05.294Z,3.10
2022-09-23T07:30:17.088Z,2.80
2022-09-23T07:31:37.767Z,2.80
2022-09-23T07:32:48.556Z,2.80
2022-09-23T07:33:57.115Z,3.50
2022-09-23T07:35:00.412Z,3.30
2022-09-23T07:36:13.224Z,4.30
2022-09-23T07:37:18.353Z,2.30
2022-09-23T07:38:32.062Z,2.60
2022-09-23T07:39:36.919Z,3.50
2022-09-23T07:40:40.444Z,3.50
2022-09-23T07:41:44.558Z,2.70
2022-09-23T07:42:48.213Z,2.50
2022-09-23T07:43:52.864Z,2.70
2022-09-23T07:44:57.427Z,3.20
2022-09-23T07:46:04.098Z,3.00
2022-09-23T07:47:07.484Z,2.50
2022-09-23T07:48:11.137Z,6.00
2022-09-23T07:49:14.327Z,2.80
2022-09-23T07:50:19.296Z,2.80
2022-09-23T07:51:25.610Z,2.50
2022-09-23T07:52:28.715Z,4.70
2022-09-23T07:53:32.274Z,2.70
2022-09-23T07:54:35.813Z,3.70
2022-09-23T07:55:39.100Z,4.50
2022-09-23T07:56:43.304Z,3.10
2022-09-23T07:57:46.988Z,2.60
2022-09-23T07:59:03.970Z,3.20
2022-09-23T08:00:07.818Z,2.80
2022-09-23T08:01:14.808Z,3.70
2022-09-23T08:02:19.367Z,3.30
2022-09-23T08:03:23.015Z,2.60
2022-09-23T08:04:33.289Z,4.20
2022-09-23T08:05:37.743Z,3.70
2022-09-23T08:06:45.894Z,2.90
2022-09-23T08:07:49.673Z,3.10
2022-09-23T08:08:53.577Z,2.80
2022-09-23T08:09:56.909Z,2.70
2022-09-23T08:11:08.612Z,2.70
2022-09-23T08:12:16.797Z,2.50
2022-09-23T08:13:20.212Z,2.50
2022-09-23T08:14:23.753Z,4.00
2022-09-23T08:15:28.490Z,5.10
2022-09-23T08:16:32.002Z,2.60
2022-09-23T08:17:38.283Z,5.60
2022-09-23T08:18:45.094Z,3.50
2022-09-23T08:19:49.105Z,2.30
2022-09-23T08:20:52.852Z,4.50
2022-09-23T08:21:59.388Z,2.50
2022-09-23T08:23:02.559Z,3.20
2022-09-23T08:24:09.299Z,2.30
2022-09-23T08:25:14.830Z,2.60
2022-09-23T08:26:21.722Z,3.00
2022-09-23T08:27:25.509Z,2.30
2022-09-23T08:28:29.317Z,2.80
2022-09-23T08:29:32.731Z,2.60
2022-09-23T08:30:36.045Z,2.30
2022-09-23T08:31:39.437Z,2.30
2022-09-23T08:32:42.616Z,2.60
2022-09-23T08:33:45.868Z,2.20
2022-09-23T08:34:49.376Z,2.90
2022-09-23T08:35:53.677Z,2.80
2022-09-23T08:36:57.020Z,2.40
2022-09-23T08:38:00.237Z,2.30
2022-09-23T08:39:04.880Z,2.70
2022-09-23T08:40:08.759Z,2.40
2022-09-23T08:41:22.591Z,3.10
2022-09-23T08:42:32.614Z,3.30
2022-09-23T08:43:37.234Z,2.90
2022-09-23T08:44:54.554Z,2.40
2022-09-23T08:46:01.881Z,2.70
2022-09-23T08:47:13.543Z,2.20
2022-09-23T08:48:28.219Z,2.30
2022-09-23T08:49:39.596Z,2.70
2022-09-23T08:50:47.159Z,2.40
2022-09-23T08:51:55.130Z,2.90
2022-09-23T08:53:07.999Z,2.40
2022-09-23T08:54:12.934Z,5.50
2022-09-23T08:55:17.283Z,2.20
2022-09-23T08:56:23.633Z,2.90
2022-09-23T08:57:43.421Z,2.40
2022-09-23T08:59:18.766Z,2.80
2022-09-23T09:00:27.699Z,2.10
2022-09-23T09:01:52.160Z,3.30
2022-09-23T09:02:56.341Z,2.60
2022-09-23T09:04:14.686Z,2.50
2022-09-23T09:05:26.442Z,3.40
2022-09-23T09:07:03.575Z,2.40
2022-09-23T09:08:29.957Z,3.00
2022-09-23T09:09:40.231Z,2.30
2022-09-23T09:10:47.563Z,3.00
2022-09-23T09:11:58.267Z,2.40
2022-09-23T09:13:10.961Z,2.30
2022-09-23T09:14:27.515Z,2.10
2022-09-23T09:15:31.292Z,2.50
2022-09-23T09:17:08.218Z,2.40
2022-09-23T09:18:20.280Z,2.60
2022-09-23T09:19:52.297Z,2.60
2022-09-23T09:20:59.115Z,2.60
2022-09-23T09:22:12.132Z,2.60
2022-09-23T09:23:27.699Z,2.70
2022-09-23T09:24:40.485Z,2.40
2022-09-23T09:25:46.311Z,2.50
2022-09-23T09:26:49.721Z,4.60
2022-09-23T09:27:56.079Z,2.70
2022-09-23T09:29:31.239Z,2.60
2022-09-23T09:30:35.046Z,4.40
2022-09-23T09:31:46.437Z,2.70
2022-09-23T09:33:02.840Z,4.20
2022-09-23T09:34:17.034Z,2.90
2022-09-23T09:35:36.901Z,2.80
2022-09-23T09:36:58.131Z,2.70
2022-09-23T09:38:02.014Z,2.50
2022-09-23T09:39:09.077Z,2.40
2022-09-23T09:40:13.387Z,2.70
2022-09-23T09:41:18.443Z,2.40
2022-09-23T09:42:27.526Z,2.70
2022-09-23T09:43:32.506Z,2.40
2022-09-23T09:44:59.176Z,3.50
2022-09-23T09:46:21.986Z,2.20
2022-09-23T09:47:57.540Z,3.30
2022-09-23T09:49:08.475Z,2.60
2022-09-23T09:50:21.879Z,3.50
2022-09-23T09:51:29.585Z,2.30
2022-09-23T09:52:38.954Z,2.40
2022-09-23T09:53:42.312Z,2.20
2022-09-23T09:54:45.548Z,2.80
2022-09-23T09:56:18.583Z,2.70
2022-09-23T09:57:40.080Z,2.60
2022-09-23T09:58:51.163Z,2.20
2022-09-23T09:59:54.592Z,2.50
2022-09-23T10:00:59.133Z,3.10
2022-09-23T10:02:33.216Z,3.80
2022-09-23T10:03:44.137Z,2.50
2022-09-23T10:04:56.461Z,3.60
2022-09-23T10:05:59.933Z,3.30
2022-09-23T10:07:15.968Z,3.40
2022-09-23T10:08:27.039Z,2.70
2022-09-23T10:09:36.238Z,2.20
2022-09-23T10:10:51.679Z,2.40
2022-09-23T10:12:18.728Z,2.70
2022-09-23T10:13:26.560Z,3.90
2022-09-23T10:14:30.414Z,2.20
2022-09-23T10:15:44.870Z,2.20
2022-09-23T10:17:05.603Z,2.40
2022-09-23T10:18:25.076Z,3.10
2022-09-23T10:19:29.741Z,3.40
2022-09-23T10:20:41.170Z,2.90
2022-09-23T10:21:52.959Z,2.30
2022-09-23T10:22:59.157Z,2.40
2022-09-23T10:24:08.117Z,2.60
2022-09-23T10:25:24.868Z,2.30
2022-09-23T10:26:44.163Z,2.20
2022-09-23T10:27:47.547Z,2.60
2022-09-23T10:28:53.605Z,3.20
2022-09-23T10:29:59.399Z,2.70
2022-09-23T10:31:05.672Z,3.30
2022-09-23T10:32:25.793Z,2.50
2022-09-23T10:33:29.137Z,2.30
2022-09-23T10:34:35.191Z,3.30
2022-09-23T10:36:00.374Z,2.30
2022-09-23T10:37:42.743Z,3.80
2022-09-23T10:38:50.057Z,3.30
2022-09-23T10:40:15.072Z,3.30
2022-09-23T10:42:02.787Z,5.10
2022-09-23T10:43:56.637Z,2.30
2022-09-23T10:45:46.391Z,2.50
2022-09-23T10:47:14.914Z,3.40
2022-09-23T10:48:57.515Z,2.50
2022-09-23T10:50:43.327Z,4.00
2022-09-23T10:51:58.470Z,4.30
2022-09-23T10:53:29.612Z,3.00
2022-09-23T10:54:52.105Z,2.30
2022-09-23T10:56:18.531Z,2.50
2022-09-23T10:57:43.611Z,2.60
2022-09-23T10:59:05.015Z,2.20
2022-09-23T11:00:22.541Z,3.00
2022-09-23T11:01:42.944Z,2.40
2022-09-23T11:03:07.443Z,2.50
2022-09-23T11:04:16.791Z,2.20
2022-09-23T11:06:05.553Z,2.60
2022-09-23T11:07:22.142Z,2.50
2022-09-23T11:08:56.605Z,2.30
2022-09-23T11:10:44.889Z,2.20
2022-09-23T11:13:54.513Z,3.30
2022-09-23T11:15:31.461Z,2.60
2022-09-23T11:16:46.996Z,2.70
2022-09-23T11:18:36.328Z,2.70
2022-09-23T11:19:56.672Z,2.30
2022-09-23T11:21:07.423Z,2.90
2022-09-23T11:22:36.560Z,3.20
2022-09-23T11:24:14.703Z,3.10
2022-09-23T11:25:37.092Z,3.60
2022-09-23T11:27:12.839Z,2.50
2022-09-23T11:28:40.828Z,2.20
2022-09-23T11:30:03.607Z,2.80
2022-09-23T11:31:47.674Z,2.20
2022-09-23T11:33:15.969Z,2.60
2022-09-23T11:34:45.480Z,2.40
2022-09-23T11:35:59.055Z,2.80
2022-09-23T11:37:13.003Z,2.80
2022-09-23T11:38:36.145Z,2.70
2022-09-23T11:40:15.797Z,4.80
2022-09-23T11:41:27.361Z,2.40
2022-09-23T11:42:40.667Z,2.40
2022-09-23T11:43:48.247Z,4.00
2022-09-23T11:45:02.417Z,2.20
2022-09-23T11:46:23.733Z,3.40
2022-09-23T11:47:43.722Z,2.10
2022-09-23T11:48:54.605Z,2.00
2022-09-23T11:50:15.080Z,2.90
2022-09-23T11:51:27.655Z,2.30
2022-09-23T11:52:37.161Z,3.20
2022-09-23T11:53:55.517Z,2.40
2022-09-23T11:55:21.403Z,1.90
2022-09-23T11:56:37.326Z,2.20
2022-09-23T11:58:03.746Z,1.80
2022-09-23T11:59:25.215Z,2.00
2022-09-23T12:00:46.622Z,1.90
2022-09-23T12:02:16.070Z,2.40
2022-09-23T12:03:39.270Z,1.80
2022-09-23T12:04:58.641Z,2.00
2022-09-23T12:06:14.764Z,3.10
2022-09-23T12:07:28.737Z,1.70
2022-09-23T12:08:33.554Z,1.70
2022-09-23T12:10:06.535Z,1.80
2022-09-23T12:11:30.245Z,3.30
2022-09-23T12:13:19.349Z,2.10
2022-09-23T12:14:34.908Z,1.90
2022-09-23T12:16:06.086Z,2.40
2022-09-23T12:18:43.135Z,2.00
2022-09-23T12:19:51.945Z,2.90
2022-09-23T12:21:32.739Z,2.40
2022-09-23T12:23:06.757Z,1.80
2022-09-23T12:24:37.929Z,2.20
2022-09-23T12:26:59.663Z,2.30
2022-09-23T12:28:15.539Z,2.10
2022-09-23T12:29:19.469Z,2.30
2022-09-23T12:30:27.347Z,4.40
2022-09-23T12:31:40.332Z,3.70
2022-09-23T12:32:45.781Z,1.90
2022-09-23T12:33:52.514Z,2.20
2022-09-23T12:34:56.519Z,2.00
2022-09-23T12:36:18.091Z,2.00
2022-09-23T12:37:36.503Z,1.90
2022-09-23T12:39:07.620Z,2.00
2022-09-23T12:40:31.973Z,1.80
2022-09-23T12:41:39.127Z,1.40
2022-09-23T12:42:46.272Z,3.10
2022-09-23T12:44:08.420Z,1.70
2022-09-23T12:45:37.558Z,1.80
2022-09-23T12:46:45.604Z,1.60
2022-09-23T12:47:48.883Z,2.30
2022-09-23T12:48:58.323Z,2.30
2022-09-23T12:50:02.014Z,1.90
2022-09-23T12:51:06.894Z,2.20
2022-09-23T12:52:14.134Z,3.90
2022-09-23T12:53:35.661Z,3.20
2022-09-23T12:54:40.973Z,2.60
2022-09-23T12:55:47.183Z,2.50
2022-09-23T12:56:56.345Z,2.20
2022-09-23T12:57:59.504Z,1.90
2022-09-23T12:59:17.633Z,1.90
2022-09-23T13:00:23.146Z,1.90
2022-09-23T13:01:27.668Z,2.00
2022-09-23T13:02:36.708Z,2.20
2022-09-23T13:04:04.783Z,2.90
2022-09-23T13:05:26.668Z,1.70
2022-09-23T13:07:06.616Z,2.20
2022-09-23T13:08:18.520Z,1.90
2022-09-23T13:09:28.787Z,1.90
2022-09-23T13:10:39.874Z,1.70
2022-09-23T13:12:49.221Z,3.20
2022-09-23T13:13:56.805Z,3.10
2022-09-23T13:15:06.374Z,2.50
2022-09-23T13:16:24.570Z,2.10
2022-09-23T13:17:37.765Z,4.20
2022-09-23T13:18:59.716Z,2.10
2022-09-23T13:20:27.295Z,2.20
2022-09-23T13:21:42.836Z,1.80
2022-09-23T13:22:49.278Z,1.60
2022-09-23T13:24:22.144Z,1.80
2022-09-23T13:25:28.846Z,2.30
2022-09-23T13:26:34.774Z,2.10
2022-09-23T13:27:47.801Z,2.30
2022-09-23T13:29:02.435Z,2.20
2022-09-23T13:30:14.815Z,2.00
2022-09-23T13:31:21.262Z,2.40
2022-09-23T13:32:51.926Z,4.10
2022-09-23T13:34:07.750Z,2.10
2022-09-23T13:35:16.882Z,2.00
2022-09-23T13:36:21.320Z,2.20
2022-09-23T13:37:47.980Z,2.20
2022-09-23T13:38:51.139Z,2.00
2022-09-23T13:40:07.732Z,1.90
2022-09-23T13:41:31.673Z,1.90
2022-09-23T13:42:38.511Z,1.80
2022-09-23T13:44:15.265Z,2.00
2022-09-23T13:45:23.921Z,3.00
2022-09-23T13:46:30.205Z,2.70
2022-09-23T13:47:36.264Z,1.80
2022-09-23T13:48:43.281Z,2.90
2022-09-23T13:49:48.299Z,1.80
2022-09-23T13:50:54.118Z,4.10
2022-09-23T13:51:57.849Z,2.60
2022-09-23T13:53:06.639Z,2.20
2022-09-23T13:54:51.854Z,2.10
2022-09-23T13:56:19.399Z,2.70
2022-09-23T13:57:28.321Z,2.80
2022-09-23T13:58:34.360Z,2.10
2022-09-23T13:59:41.367Z,3.20
2022-09-23T14:00:45.004Z,2.30
2022-09-23T14:01:49.133Z,2.20
2022-09-23T14:02:55.591Z,2.10
2022-09-23T14:03:59.256Z,2.30
2022-09-23T14:05:12.738Z,2.90
2022-09-23T14:06:16.905Z,2.20
2022-09-23T14:07:20.257Z,3.00
2022-09-23T14:08:24.674Z,2.50
2022-09-23T14:09:29.577Z,2.80
2022-09-23T14:10:34.076Z,2.30
2022-09-23T14:11:37.426Z,2.90
2022-09-23T14:12:40.714Z,2.30
2022-09-23T14:13:45.952Z,2.60
2022-09-23T14:14:52.011Z,3.60
2022-09-23T14:15:59.452Z,2.20
2022-09-23T14:17:04.061Z,2.20
2022-09-23T14:18:08.532Z,2.10
2022-09-23T14:19:20.676Z,3.80
2022-09-23T14:20:24.027Z,2.80
2022-09-23T14:21:39.805Z,2.40
2022-09-23T14:22:44.476Z,3.30
2022-09-23T14:23:47.800Z,2.30
2022-09-23T14:24:52.004Z,3.50
2022-09-23T14:25:55.984Z,2.50
2022-09-23T14:27:04.853Z,2.10
2022-09-23T14:28:17.578Z,2.70
2022-09-23T14:29:25.879Z,2.10
2022-09-23T14:30:29.694Z,2.00
2022-09-23T14:31:33.268Z,3.40
2022-09-23T14:32:36.947Z,2.10
2022-09-23T14:33:42.225Z,3.00
2022-09-23T14:34:52.747Z,2.10
2022-09-23T14:36:03.179Z,2.20
2022-09-23T14:37:51.384Z,2.10
2022-09-23T14:39:01.862Z,6.40
2022-09-23T14:40:11.288Z,3.10
2022-09-23T14:41:24.102Z,3.40
2022-09-23T14:42:28.019Z,2.70
2022-09-23T14:43:31.235Z,2.50
2022-09-23T14:44:35.827Z,1.90
2022-09-23T14:45:43.699Z,2.00
2022-09-23T14:46:56.800Z,2.20
2022-09-23T14:48:09.905Z,2.10
2022-09-23T14:49:16.361Z,1.80
2022-09-23T14:53:45.878Z,2.40
2022-09-23T14:54:51.128Z,2.40
2022-09-23T14:55:58.656Z,2.00
2022-09-23T14:57:17.255Z,3.00
2022-09-23T14:58:25.761Z,2.00
2022-09-23T14:59:36.193Z,2.40
2022-09-23T15:00:39.374Z,2.50
2022-09-23T15:01:42.600Z,2.80
2022-09-23T15:03:14.857Z,2.00
2022-09-23T15:04:31.188Z,2.00
2022-09-23T15:05:43.780Z,2.20
2022-09-23T15:06:52.332Z,2.10
2022-09-23T15:07:58.290Z,1.80
2022-09-23T15:09:01.681Z,2.00
2022-09-23T15:10:14.763Z,2.70
2022-09-23T15:11:18.424Z,2.30
2022-09-23T15:12:22.224Z,2.20
2022-09-23T15:13:37.027Z,2.90
2022-09-23T15:14:52.419Z,3.00
2022-09-23T15:15:57.017Z,2.60
2022-09-23T15:17:02.852Z,2.40
2022-09-23T15:18:20.261Z,2.80
2022-09-23T15:19:23.734Z,2.10
2022-09-23T15:20:27.577Z,4.20
2022-09-23T15:21:46.709Z,2.40
2022-09-23T15:22:54.426Z,2.90
2022-09-23T15:23:58.795Z,3.60
2022-09-23T15:25:28.506Z,2.40
2022-09-23T15:26:48.831Z,2.90
2022-09-23T15:28:04.399Z,2.70
2022-09-23T15:29:10.707Z,2.50
2022-09-23T15:30:19.119Z,3.80
2022-09-23T15:31:26.704Z,2.10
2022-09-23T15:32:30.239Z,1.80
2022-09-23T15:33:34.553Z,2.00
2022-09-23T15:34:37.834Z,5.20
2022-09-23T15:35:46.664Z,3.40
2022-09-23T15:36:49.879Z,3.20
2022-09-23T15:37:59.530Z,2.70
2022-09-23T15:39:08.806Z,3.30
2022-09-23T15:40:24.424Z,3.00
2022-09-23T15:41:28.166Z,2.70
2022-09-23T15:42:31.551Z,2.50
2022-09-23T15:43:35.195Z,2.80
2022-09-23T15:44:38.945Z,2.80
2022-09-23T15:45:45.092Z,3.60
2022-09-23T15:46:52.141Z,2.70
2022-09-23T15:47:58.983Z,2.30
2022-09-23T15:49:08.027Z,2.60
2022-09-23T15:50:13.345Z,3.20
2022-09-23T15:51:16.534Z,3.20
2022-09-23T15:52:22.937Z,3.70